createdAt,value
2018-12-13T00:02:19.996Z,1.80
2018-12-13T00:04:52.196Z,1.80
2018-12-13T00:07:24.781Z,1.80
2018-12-13T00:09:56.916Z,1.70
2018-12-13T00:12:28.576Z,1.70
2018-12-13T00:15:00.336Z,1.60
2018-12-13T00:17:32.216Z,1.30
2018-12-13T00:20:04.836Z,1.20
2018-12-13T00:22:36.234Z,1.20
2018-12-13T00:25:08.615Z,1.00
2018-12-13T00:27:41.516Z,1.10
2018-12-13T00:30:13.539Z,1.00
2018-12-13T00:32:45.554Z,1.00
2018-12-13T00:35:17.520Z,0.90
2018-12-13T00:37:49.836Z,0.90
2018-12-13T00:40:20.178Z,0.90
2018-12-13T00:42:52.675Z,0.80
2018-12-13T00:45:24.355Z,0.80
2018-12-13T00:47:56.135Z,0.70
2018-12-13T00:50:28.216Z,0.70
2018-12-13T00:53:00.476Z,0.70
2018-12-13T00:55:31.597Z,0.70
2018-12-13T00:58:03.138Z,0.60
2018-12-13T01:00:35.156Z,0.70
2018-12-13T01:03:06.581Z,0.80
2018-12-13T01:05:38.437Z,0.80
2018-12-13T01:08:10.456Z,0.80
2018-12-13T01:10:42.956Z,0.80
2018-12-13T01:13:14.598Z,0.80
2018-12-13T01:15:47.515Z,0.90
2018-12-13T01:18:19.136Z,0.90
2018-12-13T01:20:51.176Z,1.00
2018-12-13T01:23:23.775Z,1.10
2018-12-13T01:25:55.657Z,1.10
2018-12-13T01:28:27.296Z,1.10
2018-12-13T01:30:59.357Z,1.20
2018-12-13T01:33:31.517Z,1.20
2018-12-13T01:36:04.138Z,1.10
2018-12-13T01:38:35.553Z,1.10
2018-12-13T01:41:06.740Z,0.90
2018-12-13T01:43:38.596Z,0.90
2018-12-13T01:46:11.057Z,0.80
2018-12-13T01:48:42.496Z,0.80
2018-12-13T01:51:15.576Z,0.90
2018-12-13T01:53:46.917Z,0.90
2018-12-13T01:56:20.376Z,0.90
2018-12-13T01:58:52.057Z,0.90
2018-12-13T02:01:24.356Z,1.00
2018-12-13T02:03:56.997Z,0.90
2018-12-13T02:06:28.824Z,0.90
2018-12-13T02:09:00.335Z,1.00
2018-12-13T02:11:32.457Z,1.00
2018-12-13T02:14:04.337Z,0.90
2018-12-13T02:16:36.138Z,1.00
2018-12-13T02:19:08.716Z,0.90
2018-12-13T02:21:41.037Z,0.90
2018-12-13T02:24:12.316Z,0.90
2018-12-13T02:26:45.040Z,0.90
2018-12-13T02:29:16.778Z,1.00
2018-12-13T02:31:50.037Z,1.00
2018-12-13T02:34:21.677Z,0.90
2018-12-13T02:36:54.065Z,1.00
2018-12-13T02:39:25.285Z,0.90
2018-12-13T02:41:56.936Z,0.70
2018-12-13T02:44:28.577Z,0.70
2018-12-13T02:47:00.536Z,0.50
2018-12-13T02:49:32.636Z,0.40
2018-12-13T02:52:04.616Z,0.40
2018-12-13T02:54:37.196Z,0.30
2018-12-13T02:57:09.618Z,0.30
2018-12-13T02:59:41.218Z,0.30
2018-12-13T03:02:14.057Z,0.30
2018-12-13T03:04:46.236Z,0.30
2018-12-13T03:07:18.697Z,0.20
2018-12-13T03:09:50.912Z,0.20
2018-12-13T03:12:22.696Z,0.20
2018-12-13T03:14:55.338Z,0.20
2018-12-13T03:17:27.236Z,0.20
2018-12-13T03:19:58.779Z,0.20
2018-12-13T03:22:30.117Z,0.20
2018-12-13T03:25:01.659Z,0.20
2018-12-13T03:27:33.318Z,0.10
2018-12-13T03:30:05.997Z,0.10
2018-12-13T03:32:38.353Z,0.20
2018-12-13T03:35:09.037Z,0.20
2018-12-13T03:37:40.837Z,0.30
2018-12-13T03:40:12.997Z,0.30
2018-12-13T03:42:44.176Z,0.30
2018-12-13T03:45:16.337Z,0.30
2018-12-13T03:47:47.977Z,0.40
2018-12-13T03:50:19.877Z,0.40
2018-12-13T03:52:51.855Z,0.40
2018-12-13T03:55:24.277Z,0.50
2018-12-13T03:57:56.177Z,0.60
2018-12-13T04:00:28.398Z,0.60
2018-12-13T04:03:00.076Z,0.60
2018-12-13T04:05:32.038Z,0.60
2018-12-13T04:08:04.478Z,0.60
2018-12-13T04:10:36.798Z,0.60
2018-12-13T04:13:09.236Z,0.60
2018-12-13T04:15:40.658Z,0.50
2018-12-13T04:18:12.338Z,0.40
2018-12-13T04:20:44.158Z,0.40
2018-12-13T04:23:15.822Z,0.30
2018-12-13T04:25:47.176Z,0.20
2018-12-13T04:28:19.835Z,0.10
2018-12-13T04:30:51.957Z,-0.10
2018-12-13T04:33:24.696Z,-0.10
2018-12-13T04:35:56.556Z,-0.10
2018-12-13T04:38:28.756Z,0.00
2018-12-13T04:41:00.958Z,0.00
2018-12-13T04:43:33.796Z,0.00
2018-12-13T04:46:06.075Z,0.00
2018-12-13T04:48:38.537Z,0.10
2018-12-13T04:51:09.496Z,0.10
2018-12-13T04:53:42.279Z,0.10
2018-12-13T04:56:13.497Z,0.10
2018-12-13T04:58:46.298Z,0.10
2018-12-13T05:01:17.498Z,0.10
2018-12-13T05:03:49.775Z,0.20
2018-12-13T05:06:21.898Z,0.20
2018-12-13T05:08:54.316Z,0.30
2018-12-13T05:11:27.015Z,0.20
2018-12-13T05:13:59.595Z,0.20
2018-12-13T05:16:31.756Z,0.20
2018-12-13T05:19:04.216Z,0.20
2018-12-13T05:21:36.616Z,0.20
2018-12-13T05:24:09.037Z,0.30
2018-12-13T05:26:41.176Z,0.20
2018-12-13T05:29:13.435Z,0.20
2018-12-13T05:31:45.676Z,0.20
2018-12-13T05:34:17.278Z,0.20
2018-12-13T05:36:49.456Z,0.30
2018-12-13T05:39:21.256Z,0.20
2018-12-13T05:41:53.837Z,0.20
2018-12-13T05:44:25.696Z,0.20
2018-12-13T05:46:57.276Z,0.20
2018-12-13T05:49:28.936Z,0.20
2018-12-13T05:52:00.757Z,0.20
2018-12-13T05:54:32.818Z,0.10
2018-12-13T05:57:04.876Z,0.00
2018-12-13T05:59:37.296Z,0.00
2018-12-13T06:02:09.497Z,-0.10
2018-12-13T06:04:41.396Z,-0.10
2018-12-13T06:07:13.316Z,-0.10
2018-12-13T06:09:45.276Z,-0.10
2018-12-13T06:12:17.079Z,-0.20
2018-12-13T06:14:49.256Z,-0.20
2018-12-13T06:17:20.956Z,-0.20
2018-12-13T06:19:52.358Z,-0.20
2018-12-13T06:22:25.077Z,-0.20
2018-12-13T06:24:56.536Z,-0.20
2018-12-13T06:27:28.699Z,-0.20
2018-12-13T06:30:07.137Z,-0.20
2018-12-13T06:32:34.337Z,-0.20
2018-12-13T06:35:07.297Z,-0.20
2018-12-13T06:37:39.137Z,-0.10
2018-12-13T06:40:15.539Z,-0.10
2018-12-13T06:42:45.077Z,-0.10
2018-12-13T06:45:17.516Z,-0.10
2018-12-13T06:47:49.717Z,-0.10
2018-12-13T06:50:21.777Z,-0.10
2018-12-13T06:52:53.657Z,-0.10
2018-12-13T06:55:25.898Z,-0.10
2018-12-13T06:57:59.140Z,-0.20
2018-12-13T07:00:30.857Z,-0.20
2018-12-13T07:03:03.657Z,-0.20
2018-12-13T07:05:35.496Z,-0.20
2018-12-13T07:08:08.069Z,-0.20
2018-12-13T07:10:40.537Z,-0.30
2018-12-13T07:13:12.318Z,-0.20
2018-12-13T07:15:44.597Z,-0.20
2018-12-13T07:18:16.297Z,-0.30
2018-12-13T07:20:48.117Z,-0.30
2018-12-13T07:23:20.616Z,-0.30
2018-12-13T07:25:52.617Z,-0.20
2018-12-13T07:28:24.535Z,-0.20
2018-12-13T07:30:57.357Z,-0.30
2018-12-13T07:33:30.097Z,-0.40
2018-12-13T07:36:01.639Z,-0.40
2018-12-13T07:38:33.918Z,-0.40
2018-12-13T07:41:05.737Z,-0.30
2018-12-13T07:43:38.597Z,-0.30
2018-12-13T07:46:10.536Z,-0.30
2018-12-13T07:48:42.456Z,-0.30
2018-12-13T07:51:13.997Z,-0.30
2018-12-13T07:53:46.757Z,-0.30
2018-12-13T07:56:19.957Z,-0.30
2018-12-13T07:58:51.497Z,-0.40
2018-12-13T08:01:23.937Z,-0.40
2018-12-13T08:03:56.396Z,-0.40
2018-12-13T08:06:28.357Z,-0.30
2018-12-13T08:09:00.320Z,-0.20
2018-12-13T08:11:32.358Z,-0.10
2018-12-13T08:14:04.480Z,-0.10
2018-12-13T08:16:36.861Z,-0.20
2018-12-13T08:19:09.057Z,-0.30
2018-12-13T08:21:40.796Z,-0.20
2018-12-13T08:24:13.098Z,-0.10
2018-12-13T08:26:44.397Z,-0.10
2018-12-13T08:29:16.919Z,-0.10
2018-12-13T08:31:48.917Z,0.00
2018-12-13T08:34:20.537Z,0.10
2018-12-13T08:36:52.578Z,0.10
2018-12-13T08:39:24.637Z,0.10
2018-12-13T08:41:55.998Z,0.00
2018-12-13T08:44:27.777Z,0.00
2018-12-13T08:46:59.337Z,0.10
2018-12-13T08:49:31.877Z,0.20
2018-12-13T08:52:04.358Z,0.30
2018-12-13T08:54:35.877Z,0.40
2018-12-13T08:57:08.258Z,0.50
2018-12-13T08:59:40.257Z,0.60
2018-12-13T09:02:11.877Z,0.70
2018-12-13T09:04:43.801Z,0.70
2018-12-13T09:07:15.987Z,0.80
2018-12-13T09:09:47.667Z,0.80
2018-12-13T09:12:19.345Z,0.80
2018-12-13T09:14:51.116Z,0.90
2018-12-13T09:17:22.386Z,1.00
2018-12-13T09:19:55.265Z,1.10
2018-12-13T09:22:26.686Z,1.20
2018-12-13T09:24:59.403Z,1.10
2018-12-13T09:27:30.804Z,1.00
2018-12-13T09:30:02.870Z,1.00
2018-12-13T09:32:35.104Z,1.00
2018-12-13T09:35:07.506Z,1.20
2018-12-13T09:37:38.745Z,1.30
2018-12-13T09:40:10.925Z,1.40
2018-12-13T09:42:43.625Z,1.40
2018-12-13T09:45:15.284Z,1.50
2018-12-13T09:47:47.014Z,1.70
2018-12-13T09:50:19.363Z,1.90
2018-12-13T09:52:51.144Z,2.20
2018-12-13T09:55:23.186Z,2.40
2018-12-13T09:57:55.605Z,2.60
2018-12-13T10:00:27.344Z,2.90
2018-12-13T10:02:59.645Z,3.20
2018-12-13T10:05:31.323Z,3.40
2018-12-13T10:08:03.625Z,3.60
2018-12-13T10:10:35.704Z,3.80
2018-12-13T10:13:07.506Z,4.00
2018-12-13T10:15:39.964Z,4.20
2018-12-13T10:18:11.885Z,4.50
2018-12-13T10:20:43.864Z,5.00
2018-12-13T10:23:15.326Z,5.20
2018-12-13T10:25:47.585Z,5.30
2018-12-13T10:28:19.084Z,5.40
2018-12-13T10:30:51.544Z,5.40
2018-12-13T10:33:23.183Z,5.60
2018-12-13T10:35:55.225Z,5.80
2018-12-13T10:38:27.344Z,5.90
2018-12-13T10:40:59.704Z,5.90
2018-12-13T10:43:32.046Z,6.10
2018-12-13T10:46:04.444Z,6.20
2018-12-13T10:48:36.843Z,6.60
2018-12-13T10:51:08.364Z,6.60
2018-12-13T10:53:40.683Z,6.40
2018-12-13T10:56:12.604Z,6.30
2018-12-13T10:58:44.266Z,6.10
2018-12-13T11:01:20.346Z,5.90
2018-12-13T11:03:51.499Z,5.80
2018-12-13T11:06:23.566Z,5.70
2018-12-13T11:08:59.421Z,5.40
2018-12-13T11:11:30.623Z,5.20
2018-12-13T11:14:02.574Z,5.10
2018-12-13T11:16:34.630Z,4.90
2018-12-13T11:19:07.707Z,4.80
2018-12-13T11:21:39.834Z,4.80
2018-12-13T11:24:12.686Z,4.60
2018-12-13T11:26:44.968Z,4.40
2018-12-13T11:29:30.088Z,4.30
2018-12-13T11:32:01.989Z,4.20
2018-12-13T11:34:33.789Z,4.20
2018-12-13T11:37:06.120Z,4.20
2018-12-13T11:39:39.119Z,4.30
2018-12-13T11:42:10.900Z,4.30
2018-12-13T11:44:43.333Z,4.20
2018-12-13T11:47:15.154Z,4.20
2018-12-13T11:49:47.771Z,4.10
2018-12-13T11:52:20.656Z,4.20
2018-12-13T11:54:52.659Z,4.20
2018-12-13T11:57:24.694Z,4.20
2018-12-13T11:59:56.775Z,4.20
2018-12-13T12:02:28.453Z,4.20
2018-12-13T12:05:01.053Z,4.10
2018-12-13T12:07:32.551Z,4.00
2018-12-13T12:10:04.113Z,4.00
2018-12-13T12:12:37.631Z,4.00
2018-12-13T12:15:09.851Z,4.00
2018-12-13T12:17:42.410Z,3.90
2018-12-13T12:20:14.713Z,4.00
2018-12-13T12:22:46.012Z,4.10
2018-12-13T12:25:17.571Z,4.10
2018-12-13T12:27:48.916Z,4.10
2018-12-13T12:30:21.192Z,4.00
2018-12-13T12:32:53.211Z,4.00
2018-12-13T12:35:25.312Z,4.00
2018-12-13T12:37:57.492Z,4.10
2018-12-13T12:40:29.791Z,4.20
2018-12-13T12:43:02.024Z,4.20
2018-12-13T12:45:33.922Z,4.20
2018-12-13T12:48:05.262Z,4.30
2018-12-13T12:50:37.521Z,4.30
2018-12-13T12:53:09.503Z,4.30
2018-12-13T12:55:41.343Z,4.30
2018-12-13T12:58:14.103Z,4.30
2018-12-13T13:00:48.622Z,4.20
2018-12-13T13:03:20.122Z,4.20
2018-12-13T13:05:51.880Z,4.20
2018-12-13T13:08:23.841Z,4.20
2018-12-13T13:10:55.561Z,4.20
2018-12-13T13:13:27.683Z,4.20
2018-12-13T13:16:00.203Z,4.30
2018-12-13T13:18:31.783Z,4.30
2018-12-13T13:21:03.882Z,4.30
2018-12-13T13:23:34.902Z,4.40
2018-12-13T13:26:07.161Z,4.30
2018-12-13T13:28:38.933Z,4.30
2018-12-13T13:31:11.007Z,4.20
2018-12-13T13:33:42.687Z,4.20
2018-12-13T13:36:15.386Z,4.30
2018-12-13T13:38:46.847Z,4.40
2018-12-13T13:41:19.806Z,4.40
2018-12-13T13:43:52.066Z,4.40
2018-12-13T13:46:24.192Z,4.30
2018-12-13T13:48:56.686Z,4.30
2018-12-13T13:51:29.167Z,4.40
2018-12-13T13:54:01.546Z,4.40
2018-12-13T13:56:33.846Z,4.40
2018-12-13T13:59:05.927Z,4.40
2018-12-13T14:01:38.088Z,4.40
2018-12-13T14:04:09.786Z,4.50
2018-12-13T14:06:41.512Z,4.60
2018-12-13T14:09:13.027Z,4.70
2018-12-13T14:11:45.027Z,4.60
2018-12-13T14:14:17.647Z,4.60
2018-12-13T14:16:49.207Z,4.50
2018-12-13T14:19:21.267Z,4.50
2018-12-13T14:21:53.329Z,4.50
2018-12-13T14:24:25.267Z,4.50
2018-12-13T14:26:58.066Z,4.60
2018-12-13T14:29:29.268Z,4.60
2018-12-13T14:32:00.586Z,4.60
2018-12-13T14:34:32.227Z,4.60
2018-12-13T14:37:07.027Z,4.60
2018-12-13T14:39:44.242Z,4.60
2018-12-13T14:42:12.928Z,4.50
2018-12-13T14:44:44.367Z,4.50
2018-12-13T14:47:16.787Z,4.40
2018-12-13T14:49:48.604Z,4.40
2018-12-13T14:52:22.241Z,4.50
2018-12-13T14:54:53.644Z,4.50
2018-12-13T14:57:25.321Z,4.50
2018-12-13T14:59:56.188Z,4.50
2018-12-13T15:02:29.188Z,4.50
2018-12-13T15:05:01.367Z,4.40
2018-12-13T15:07:33.607Z,4.30
2018-12-13T15:10:05.040Z,4.20
2018-12-13T15:12:37.445Z,4.10
2018-12-13T15:15:09.295Z,4.00
2018-12-13T15:17:40.941Z,4.00
2018-12-13T15:20:12.467Z,3.90
2018-12-13T15:22:44.926Z,4.00
2018-12-13T15:25:15.823Z,4.00
2018-12-13T15:27:47.026Z,4.00
2018-12-13T15:30:19.096Z,4.00
2018-12-13T15:32:51.111Z,3.90
2018-12-13T15:35:22.364Z,3.90
2018-12-13T15:37:54.299Z,3.90
2018-12-13T15:40:25.877Z,3.80
2018-12-13T15:42:57.177Z,3.80
2018-12-13T15:45:29.108Z,3.70
2018-12-13T15:48:01.355Z,3.70
2018-12-13T15:50:32.221Z,3.60
2018-12-13T15:53:04.597Z,3.60
2018-12-13T15:55:37.577Z,3.60
2018-12-13T15:58:09.761Z,3.60
2018-12-13T16:00:43.307Z,3.60
2018-12-13T16:03:15.189Z,3.60
2018-12-13T16:05:46.982Z,3.60
2018-12-13T16:08:18.983Z,3.60
2018-12-13T16:10:51.383Z,3.60
2018-12-13T16:13:23.183Z,3.60
2018-12-13T16:15:55.243Z,3.50
2018-12-13T16:18:27.442Z,3.50
2018-12-13T16:20:59.903Z,3.40
2018-12-13T16:23:31.963Z,3.40
2018-12-13T16:26:03.883Z,2.80
2018-12-13T16:28:34.912Z,3.40
2018-12-13T16:31:07.393Z,3.30
2018-12-13T16:33:39.493Z,3.40
2018-12-13T16:36:11.253Z,3.30
2018-12-13T16:38:42.660Z,3.30
2018-12-13T16:41:15.138Z,3.20
2018-12-13T16:43:46.917Z,3.20
2018-12-13T16:46:19.857Z,3.20
2018-12-13T16:48:51.338Z,3.30
2018-12-13T16:51:23.897Z,3.20
2018-12-13T16:53:55.199Z,3.10
2018-12-13T16:56:27.878Z,3.10
2018-12-13T16:58:59.440Z,3.00
2018-12-13T17:01:31.917Z,3.00
2018-12-13T17:04:03.538Z,3.00
2018-12-13T17:06:35.378Z,3.00
2018-12-13T17:09:08.078Z,2.90
2018-12-13T17:11:41.118Z,2.90
2018-12-13T17:14:13.178Z,2.90
2018-12-13T17:16:45.000Z,2.90
2018-12-13T17:19:17.740Z,2.90
2018-12-13T17:21:49.119Z,2.80
2018-12-13T17:24:20.777Z,2.80
2018-12-13T17:26:52.758Z,2.80
2018-12-13T17:29:24.877Z,2.80
2018-12-13T17:31:56.999Z,2.80
2018-12-13T17:34:28.997Z,2.80
2018-12-13T17:37:00.938Z,2.80
2018-12-13T17:39:32.398Z,2.80
2018-12-13T17:42:04.437Z,2.80
2018-12-13T17:44:36.517Z,2.80
2018-12-13T17:47:08.759Z,2.80
2018-12-13T17:49:40.637Z,2.70
2018-12-13T17:52:12.466Z,2.60
2018-12-13T17:54:44.837Z,2.60
2018-12-13T17:57:16.141Z,2.50
2018-12-13T17:59:47.597Z,2.50
2018-12-13T18:02:20.736Z,2.50
2018-12-13T18:04:52.836Z,2.40
2018-12-13T18:07:25.759Z,2.40
2018-12-13T18:09:58.696Z,2.40
2018-12-13T18:12:30.737Z,2.40
2018-12-13T18:15:02.939Z,2.40
2018-12-13T18:17:34.640Z,2.40
2018-12-13T18:20:08.377Z,2.30
2018-12-13T18:22:40.296Z,2.30
2018-12-13T18:25:11.677Z,2.30
2018-12-13T18:27:44.497Z,2.40
2018-12-13T18:30:15.898Z,2.30
2018-12-13T18:32:48.037Z,2.30
2018-12-13T18:35:19.976Z,2.30
2018-12-13T18:37:52.557Z,2.20
2018-12-13T18:40:24.499Z,2.20
2018-12-13T18:42:56.956Z,2.20
2018-12-13T18:45:29.780Z,2.20
2018-12-13T18:48:01.716Z,2.30
2018-12-13T18:50:33.556Z,2.30
2018-12-13T18:53:06.578Z,2.40
2018-12-13T18:55:38.164Z,2.40
2018-12-13T18:58:10.235Z,2.40
2018-12-13T19:00:41.790Z,2.50
2018-12-13T19:03:13.969Z,2.40
2018-12-13T19:05:45.649Z,2.40
2018-12-13T19:08:18.334Z,2.40
2018-12-13T19:10:50.050Z,2.40
2018-12-13T19:13:22.416Z,2.40
2018-12-13T19:15:54.890Z,2.40
2018-12-13T19:18:27.772Z,2.30
2018-12-13T19:20:59.591Z,2.20
2018-12-13T19:23:32.553Z,2.20
2018-12-13T19:26:03.831Z,2.20
2018-12-13T19:28:37.476Z,2.20
2018-12-13T19:31:09.630Z,2.20
2018-12-13T19:33:42.249Z,2.20
2018-12-13T19:36:14.309Z,2.20
2018-12-13T19:38:46.749Z,2.20
2018-12-13T19:41:18.789Z,2.20
2018-12-13T19:43:51.249Z,2.20
2018-12-13T19:46:23.513Z,2.20
2018-12-13T19:48:55.910Z,2.20
2018-12-13T19:51:27.409Z,2.20
2018-12-13T19:53:59.190Z,2.20
2018-12-13T19:56:31.208Z,2.20
2018-12-13T19:59:04.009Z,2.20
2018-12-13T20:01:36.049Z,2.10
2018-12-13T20:04:08.468Z,2.10
2018-12-13T20:06:41.349Z,2.10
2018-12-13T20:09:13.586Z,2.00
2018-12-13T20:11:44.710Z,2.10
2018-12-13T20:14:17.908Z,2.10
2018-12-13T20:16:50.030Z,2.10
2018-12-13T20:19:23.219Z,2.10
2018-12-13T20:21:57.409Z,2.10
2018-12-13T20:24:30.696Z,2.10
2018-12-13T20:27:04.189Z,2.00
2018-12-13T20:29:36.210Z,2.00
2018-12-13T20:32:08.609Z,2.00
2018-12-13T20:34:42.109Z,2.00
2018-12-13T20:37:14.890Z,2.00
2018-12-13T20:39:47.189Z,2.00
2018-12-13T20:42:19.712Z,1.90
2018-12-13T20:44:51.571Z,1.90
2018-12-13T20:47:23.549Z,1.90
2018-12-13T20:49:56.230Z,1.80
2018-12-13T20:52:28.828Z,1.80
2018-12-13T20:55:00.729Z,1.90
2018-12-13T20:57:33.689Z,1.90
2018-12-13T21:00:07.172Z,1.80
2018-12-13T21:02:38.568Z,1.80
2018-12-13T21:05:10.908Z,1.80
2018-12-13T21:07:43.327Z,1.80
2018-12-13T21:10:15.669Z,1.80
2018-12-13T21:12:49.153Z,1.90
2018-12-13T21:15:20.628Z,1.80
2018-12-13T21:17:53.429Z,1.80
2018-12-13T21:20:24.907Z,1.70
2018-12-13T21:22:57.428Z,1.70
2018-12-13T21:25:28.827Z,1.70
2018-12-13T21:28:00.529Z,1.70
2018-12-13T21:30:32.049Z,1.70
2018-12-13T21:33:04.295Z,1.70
2018-12-13T21:35:36.008Z,1.60
2018-12-13T21:38:07.503Z,1.60
2018-12-13T21:40:39.008Z,1.60
2018-12-13T21:43:11.748Z,1.70
2018-12-13T21:45:43.550Z,1.70
2018-12-13T21:48:15.331Z,1.70
2018-12-13T21:50:46.411Z,1.80
2018-12-13T21:53:19.138Z,1.80
2018-12-13T21:55:51.208Z,1.70
2018-12-13T21:58:23.415Z,1.70
2018-12-13T22:00:55.969Z,1.70
2018-12-13T22:03:28.429Z,1.60
2018-12-13T22:06:00.288Z,1.70
2018-12-13T22:08:32.150Z,1.60
2018-12-13T22:11:04.008Z,1.60
2018-12-13T22:13:36.609Z,1.60
2018-12-13T22:16:08.989Z,1.70
2018-12-13T22:18:41.249Z,1.60
2018-12-13T22:21:13.149Z,1.50
2018-12-13T22:23:44.668Z,1.50
2018-12-13T22:26:16.048Z,1.50
2018-12-13T22:35:50.408Z,1.60
2018-12-13T22:38:22.510Z,1.20
2018-12-13T22:40:55.629Z,1.30
2018-12-13T22:43:27.530Z,1.40
2018-12-13T22:46:00.930Z,1.50
2018-12-13T22:48:33.249Z,1.50
2018-12-13T22:51:05.390Z,1.50
2018-12-13T22:53:37.328Z,1.50
2018-12-13T22:56:09.549Z,1.40
2018-12-13T22:58:41.169Z,1.40
2018-12-13T23:01:13.793Z,1.40
2018-12-13T23:03:46.728Z,1.40
2018-12-13T23:06:18.855Z,1.30
2018-12-13T23:08:51.271Z,1.40
2018-12-13T23:11:23.188Z,1.30
2018-12-13T23:13:55.508Z,1.30
2018-12-13T23:16:26.869Z,1.40
2018-12-13T23:18:59.369Z,1.40
2018-12-13T23:21:34.088Z,1.50
2018-12-13T23:24:05.729Z,1.50
2018-12-13T23:26:37.729Z,1.50
2018-12-13T23:29:09.469Z,1.50
2018-12-13T23:31:42.049Z,1.50
2018-12-13T23:34:14.348Z,1.60
2018-12-13T23:36:46.130Z,1.60
2018-12-13T23:39:18.410Z,1.50
2018-12-13T23:41:50.069Z,1.50
2018-12-13T23:44:22.629Z,1.40
2018-12-13T23:46:53.930Z,1.40
2018-12-13T23:49:25.828Z,1.40
2018-12-13T23:51:57.590Z,1.30
2018-12-13T23:54:30.248Z,1.30
2018-12-13T23:57:02.428Z,1.20
2018-12-13T23:59:34.509Z,1.10
